sensor_id;sensor_type;location;lat;lon;timestamp;P1;durP1;ratioP1;P2;durP2;ratioP2
50563;SDS011;36514;52.590;21.448;2023-08-08T06:27:18;1819.29;;;910.15;;
50563;SDS011;36514;52.590;21.448;2023-08-08T06:37:16;1819.23;;;910.08;;
50563;SDS011;36514;52.590;21.448;2023-08-08T06:47:14;1819.15;;;910.02;;
50563;SDS011;36514;52.590;21.448;2023-08-08T06:57:14;1819.16;;;910.03;;
50563;SDS011;36514;52.590;21.448;2023-08-08T07:07:10;1819.14;;;910.00;;
50563;SDS011;36514;52.590;21.448;2023-08-08T07:17:07;1819.15;;;910.01;;
50563;SDS011;36514;52.590;21.448;2023-08-08T07:27:10;1819.15;;;910.01;;
50563;SDS011;36514;52.590;21.448;2023-08-08T07:37:09;1819.13;;;909.99;;
50563;SDS011;36514;52.590;21.448;2023-08-08T07:47:08;1819.00;;;909.86;;
50563;SDS011;36514;52.590;21.448;2023-08-08T07:57:10;1819.09;;;909.95;;
50563;SDS011;36514;52.590;21.448;2023-08-08T08:07:04;1819.10;;;909.96;;
50563;SDS011;36514;52.590;21.448;2023-08-08T08:16:58;1819.12;;;909.98;;
50563;SDS011;36514;52.590;21.448;2023-08-08T08:26:55;1819.10;;;909.96;;
50563;SDS011;36514;52.590;21.448;2023-08-08T08:36:51;1819.07;;;909.94;;
50563;SDS011;36514;52.590;21.448;2023-08-08T08:47:03;1819.02;;;909.88;;
50563;SDS011;36514;52.590;21.448;2023-08-08T08:57:17;1818.98;;;909.85;;
50563;SDS011;36514;52.590;21.448;2023-08-08T09:06:43;1818.97;;;909.84;;
50563;SDS011;36514;52.590;21.448;2023-08-08T09:16:55;1819.05;;;909.91;;
50563;SDS011;36514;52.590;21.448;2023-08-08T09:27:09;1818.96;;;909.83;;
50563;SDS011;36514;52.590;21.448;2023-08-08T09:37:11;1818.97;;;909.84;;
50563;SDS011;36514;52.590;21.448;2023-08-08T09:46:52;1818.96;;;909.83;;
50563;SDS011;36514;52.590;21.448;2023-08-08T09:56:39;1818.95;;;909.82;;
50563;SDS011;36514;52.590;21.448;2023-08-08T10:06:50;1818.99;;;909.85;;
50563;SDS011;36514;52.590;21.448;2023-08-08T10:16:58;1819.00;;;909.86;;
50563;SDS011;36514;52.590;21.448;2023-08-08T10:27:15;1818.94;;;909.81;;
50563;SDS011;36514;52.590;21.448;2023-08-08T10:37:17;1818.94;;;909.81;;
50563;SDS011;36514;52.590;21.448;2023-08-08T10:47:31;1818.98;;;909.85;;
50563;SDS011;36514;52.590;21.448;2023-08-08T10:57:29;1818.97;;;909.84;;
50563;SDS011;36514;52.590;21.448;2023-08-08T11:07:14;1819.03;;;909.89;;
50563;SDS011;36514;52.590;21.448;2023-08-08T11:17:19;1819.03;;;909.89;;
50563;SDS011;36514;52.590;21.448;2023-08-08T11:27:09;1819.00;;;909.86;;
50563;SDS011;36514;52.590;21.448;2023-08-08T11:37:17;1818.97;;;909.84;;
50563;SDS011;36514;52.590;21.448;2023-08-08T11:47:06;1818.90;;;909.77;;
50563;SDS011;36514;52.590;21.448;2023-08-08T11:57:14;1819.04;;;909.90;;
50563;SDS011;36514;52.590;21.448;2023-08-08T12:07:17;1818.88;;;909.75;;
50563;SDS011;36514;52.590;21.448;2023-08-08T12:17:09;1819.07;;;909.94;;
50563;SDS011;36514;52.590;21.448;2023-08-08T12:27:05;1819.07;;;909.94;;
50563;SDS011;36514;52.590;21.448;2023-08-08T12:37:02;1819.05;;;909.92;;
50563;SDS011;36514;52.590;21.448;2023-08-08T12:47:03;1819.02;;;909.88;;
50563;SDS011;36514;52.590;21.448;2023-08-08T12:57:01;1819.05;;;909.92;;
50563;SDS011;36514;52.590;21.448;2023-08-08T13:07:09;1819.05;;;909.92;;
50563;SDS011;36514;52.590;21.448;2023-08-08T13:17:09;1819.10;;;909.96;;
50563;SDS011;36514;52.590;21.448;2023-08-08T13:27:11;1818.93;;;909.80;;
50563;SDS011;36514;52.590;21.448;2023-08-08T13:37:23;1818.99;;;909.85;;
50563;SDS011;36514;52.590;21.448;2023-08-08T13:47:05;1819.01;;;909.87;;
50563;SDS011;36514;52.590;21.448;2023-08-08T13:56:58;1819.05;;;909.91;;
50563;SDS011;36514;52.590;21.448;2023-08-08T14:06:49;1819.07;;;909.94;;
50563;SDS011;36514;52.590;21.448;2023-08-08T14:16:45;1818.94;;;909.81;;
50563;SDS011;36514;52.590;21.448;2023-08-08T14:26:47;1819.07;;;909.94;;
50563;SDS011;36514;52.590;21.448;2023-08-08T14:36:40;1819.06;;;909.93;;
50563;SDS011;36514;52.590;21.448;2023-08-08T14:46:36;1819.02;;;909.88;;
50563;SDS011;36514;52.590;21.448;2023-08-08T14:56:51;1819.01;;;909.87;;
50563;SDS011;36514;52.590;21.448;2023-08-08T15:06:45;1819.05;;;909.91;;
50563;SDS011;36514;52.590;21.448;2023-08-08T15:16:39;1819.04;;;909.90;;
50563;SDS011;36514;52.590;21.448;2023-08-08T15:26:34;1818.98;;;909.85;;
50563;SDS011;36514;52.590;21.448;2023-08-08T15:36:23;1819.05;;;909.92;;
50563;SDS011;36514;52.590;21.448;2023-08-08T15:46:15;1819.12;;;909.98;;
50563;SDS011;36514;52.590;21.448;2023-08-08T15:56:10;1819.15;;;910.02;;
50563;SDS011;36514;52.590;21.448;2023-08-08T16:06:07;1819.18;;;910.04;;
50563;SDS011;36514;52.590;21.448;2023-08-08T16:16:05;1819.16;;;910.03;;
50563;SDS011;36514;52.590;21.448;2023-08-08T16:26:03;1819.13;;;909.99;;
50563;SDS011;36514;52.590;21.448;2023-08-08T16:36:07;1819.06;;;909.93;;
50563;SDS011;36514;52.590;21.448;2023-08-08T16:46:09;1819.11;;;909.97;;
50563;SDS011;36514;52.590;21.448;2023-08-08T16:56:03;1819.10;;;909.96;;
50563;SDS011;36514;52.590;21.448;2023-08-08T17:05:55;1819.14;;;910.00;;
50563;SDS011;36514;52.590;21.448;2023-08-08T17:15:49;1819.15;;;910.02;;
50563;SDS011;36514;52.590;21.448;2023-08-08T17:25:44;1819.30;;;910.15;;
50563;SDS011;36514;52.590;21.448;2023-08-08T17:35:42;1819.24;;;910.09;;
50563;SDS011;36514;52.590;21.448;2023-08-08T17:45:38;1819.15;;;910.02;;
50563;SDS011;36514;52.590;21.448;2023-08-08T17:55:34;1819.31;;;910.16;;
50563;SDS011;36514;52.590;21.448;2023-08-08T18:05:32;1819.29;;;910.15;;
50563;SDS011;36514;52.590;21.448;2023-08-08T18:15:29;1819.21;;;910.06;;
50563;SDS011;36514;52.590;21.448;2023-08-08T18:25:25;1819.27;;;910.13;;
50563;SDS011;36514;52.590;21.448;2023-08-08T18:35:21;1819.27;;;910.13;;
50563;SDS011;36514;52.590;21.448;2023-08-08T18:45:18;1819.21;;;910.06;;
50563;SDS011;36514;52.590;21.448;2023-08-08T18:55:14;1819.26;;;910.12;;
50563;SDS011;36514;52.590;21.448;2023-08-08T19:05:11;1819.27;;;910.13;;
50563;SDS011;36514;52.590;21.448;2023-08-08T19:15:09;1819.34;;;910.19;;
50563;SDS011;36514;52.590;21.448;2023-08-08T19:25:06;1819.30;;;910.15;;
50563;SDS011;36514;52.590;21.448;2023-08-08T19:35:04;1819.34;;;910.19;;
50563;SDS011;36514;52.590;21.448;2023-08-08T19:45:02;1819.32;;;910.17;;
50563;SDS011;36514;52.590;21.448;2023-08-08T19:54:59;1819.24;;;910.09;;
50563;SDS011;36514;52.590;21.448;2023-08-08T20:04:55;1819.28;;;910.14;;
50563;SDS011;36514;52.590;21.448;2023-08-08T20:14:51;1819.29;;;910.15;;
